Time;durP1;ratioP1;P1;durP2;ratioP2;P2;SDS_P1;SDS_P2;PMS_P1;PMS_P2;Temp;Humidity;BMP_temperature;BMP_pressure;BME280_temperature;BME280_humidity;BME280_pressure;Samples;Min_cycle;Max_cycle;Signal;HPM_P1;HPM_P2
2022/01/29 00:01:31;;;;;;;;;94.25;90.50;;;;;;;;5015495;28;51046;-51
2022/01/29 00:04:16;;;;;;;;;103.50;88.75;;;;;;;;5017916;28;51190;-52
2022/01/29 00:07:01;;;;;;;;;101.00;91.75;;;;;;;;5018714;28;51204;-52
2022/01/29 00:09:47;;;;;;;;;98.50;84.00;;;;;;;;5018504;28;52044;-57
2022/01/29 00:12:32;;;;;;;;;105.75;89.50;;;;;;;;5016869;28;51213;-50
2022/01/29 00:15:16;;;;;;;;;108.75;92.75;;;;;;;;5015072;28;51297;-54
2022/01/29 00:18:01;;;;;;;;;113.75;95.00;;;;;;;;5017220;28;51158;-51
2022/01/29 00:20:45;;;;;;;;;110.00;99.25;;;;;;;;5014909;28;51166;-47
2022/01/29 00:23:29;;;;;;;;;112.25;96.00;;;;;;;;5014292;28;53098;-51
2022/01/29 00:26:15;;;;;;;;;110.25;97.50;;;;;;;;5013638;28;51088;-50
2022/01/29 00:29:05;;;;;;;;;99.25;87.50;;;;;;;;5015587;28;51052;-52
2022/01/29 00:31:49;;;;;;;;;103.75;94.50;;;;;;;;5014951;28;51030;-54
2022/01/29 00:34:34;;;;;;;;;109.75;99.25;;;;;;;;5012257;28;51083;-51
2022/01/29 00:37:18;;;;;;;;;105.25;90.75;;;;;;;;5013899;28;51349;-56
2022/01/29 00:40:03;;;;;;;;;108.75;96.00;;;;;;;;5017140;28;51125;-51
2022/01/29 00:42:48;;;;;;;;;105.75;91.50;;;;;;;;5017205;28;51703;-57
2022/01/29 00:45:32;;;;;;;;;110.75;91.00;;;;;;;;5016284;28;51130;-55
2022/01/29 00:48:17;;;;;;;;;105.75;94.50;;;;;;;;5016201;28;51619;-50
2022/01/29 00:51:02;;;;;;;;;124.50;102.75;;;;;;;;5013738;28;52739;-52
2022/01/29 00:53:46;;;;;;;;;117.75;99.00;;;;;;;;5019520;28;51569;-49
2022/01/29 00:56:31;;;;;;;;;115.25;96.00;;;;;;;;5019632;28;51070;-53
2022/01/29 00:59:15;;;;;;;;;118.75;101.25;;;;;;;;5018617;28;51463;-57
2022/01/29 01:02:00;;;;;;;;;111.25;98.50;;;;;;;;5017097;28;51047;-52
2022/01/29 01:04:44;;;;;;;;;123.00;104.75;;;;;;;;5012378;28;51193;-53
2022/01/29 01:07:28;;;;;;;;;111.50;91.75;;;;;;;;5017614;28;51271;-51
2022/01/29 01:10:12;;;;;;;;;103.00;88.00;;;;;;;;5019667;28;51170;-53
2022/01/29 01:12:57;;;;;;;;;113.50;94.75;;;;;;;;5017679;28;51541;-57
2022/01/29 01:15:41;;;;;;;;;115.50;98.00;;;;;;;;5011724;28;51129;-57
2022/01/29 01:18:26;;;;;;;;;111.75;98.25;;;;;;;;5019375;28;51265;-55
2022/01/29 01:21:10;;;;;;;;;119.75;101.75;;;;;;;;5012438;28;51162;-52
2022/01/29 01:23:54;;;;;;;;;117.50;99.00;;;;;;;;5019018;28;51475;-52
2022/01/29 01:26:41;;;;;;;;;119.50;107.75;;;;;;;;5015489;28;51022;-52
2022/01/29 01:29:25;;;;;;;;;121.25;108.75;;;;;;;;5018072;28;51450;-52
2022/01/29 01:32:11;;;;;;;;;124.00;109.25;;;;;;;;5016914;28;51379;-53
2022/01/29 01:35:05;;;;;;;;;122.50;109.25;;;;;;;;5016938;28;51168;-51
2022/01/29 01:37:55;;;;;;;;;113.25;97.50;;;;;;;;5019024;28;51193;-58
2022/01/29 01:40:43;;;;;;;;;116.50;102.75;;;;;;;;5017494;28;52278;-49
2022/01/29 01:43:28;;;;;;;;;120.50;103.25;;;;;;;;5015568;28;51380;-52
2022/01/29 01:46:12;;;;;;;;;114.50;102.25;;;;;;;;5017716;28;51053;-51
2022/01/29 01:48:57;;;;;;;;;116.75;102.50;;;;;;;;5011307;28;51943;-51
2022/01/29 01:51:43;;;;;;;;;111.25;98.75;;;;;;;;5016244;28;51243;-48
2022/01/29 01:54:27;;;;;;;;;109.75;91.00;;;;;;;;5019489;28;51980;-56
2022/01/29 01:57:11;;;;;;;;;107.75;96.25;;;;;;;;5013160;28;51133;-51
2022/01/29 01:59:55;;;;;;;;;108.50;94.50;;;;;;;;5012463;28;51082;-55
2022/01/29 02:02:40;;;;;;;;;107.00;94.75;;;;;;;;5017653;28;51405;-55
2022/01/29 02:05:25;;;;;;;;;114.50;101.50;;;;;;;;5017555;28;50989;-51
2022/01/29 02:08:10;;;;;;;;;112.75;100.50;;;;;;;;5017554;28;51342;-54
2022/01/29 02:11:00;;;;;;;;;128.25;113.75;;;;;;;;5016163;28;51151;-52
2022/01/29 02:13:45;;;;;;;;;120.25;107.75;;;;;;;;5014155;28;52582;-48
2022/01/29 02:16:31;;;;;;;;;124.00;112.50;;;;;;;;5017852;28;51079;-55
2022/01/29 02:19:15;;;;;;;;;127.75;108.50;;;;;;;;5016063;28;51158;-51
2022/01/29 02:22:00;;;;;;;;;125.00;108.50;;;;;;;;5015618;28;51420;-55
2022/01/29 02:24:45;;;;;;;;;135.50;117.00;;;;;;;;5019058;28;51118;-52
2022/01/29 02:27:29;;;;;;;;;136.50;119.00;;;;;;;;5017204;28;51309;-57
2022/01/29 02:30:13;;;;;;;;;161.25;143.00;;;;;;;;5010646;28;51140;-51
2022/01/29 02:32:58;;;;;;;;;151.50;135.25;;;;;;;;5016121;28;51230;-54
2022/01/29 02:35:49;;;;;;;;;127.75;112.50;;;;;;;;5017284;28;51049;-53
2022/01/29 02:38:35;;;;;;;;;140.50;118.75;;;;;;;;5015269;28;51253;-51
2022/01/29 02:41:20;;;;;;;;;119.25;105.75;;;;;;;;5017360;28;51198;-51
2022/01/29 02:44:05;;;;;;;;;130.25;114.75;;;;;;;;5015255;28;51371;-53
2022/01/29 02:46:54;;;;;;;;;137.25;116.00;;;;;;;;5016475;28;51441;-57
2022/01/29 02:49:38;;;;;;;;;171.50;148.50;;;;;;;;5015969;28;51494;-55
2022/01/29 02:52:23;;;;;;;;;167.25;146.75;;;;;;;;5014638;28;51099;-50
2022/01/29 02:55:07;;;;;;;;;164.25;144.50;;;;;;;;5008542;28;51152;-53
2022/01/29 02:57:51;;;;;;;;;130.00;114.00;;;;;;;;5011494;28;51162;-51
2022/01/29 03:00:36;;;;;;;;;142.50;118.75;;;;;;;;5017271;28;52083;-51
2022/01/29 03:03:20;;;;;;;;;140.25;125.00;;;;;;;;5016695;28;51243;-47
2022/01/29 03:06:08;;;;;;;;;135.00;121.25;;;;;;;;5013746;28;52470;-52
2022/01/29 03:08:53;;;;;;;;;144.25;125.75;;;;;;;;5011668;28;51095;-46
2022/01/29 03:11:37;;;;;;;;;128.25;112.00;;;;;;;;5015737;28;51553;-51
2022/01/29 03:14:22;;;;;;;;;137.75;119.00;;;;;;;;5016885;28;51533;-54
2022/01/29 03:17:06;;;;;;;;;132.25;116.50;;;;;;;;5017361;28;51173;-51
2022/01/29 03:19:53;;;;;;;;;132.25;111.00;;;;;;;;5015605;28;51096;-54
2022/01/29 03:22:38;;;;;;;;;122.25;111.00;;;;;;;;5019056;28;51494;-56
2022/01/29 03:25:22;;;;;;;;;128.75;117.75;;;;;;;;5014658;28;51298;-52
2022/01/29 03:28:06;;;;;;;;;138.00;122.00;;;;;;;;5021407;28;51303;-50
2022/01/29 03:30:51;;;;;;;;;135.75;118.00;;;;;;;;5019316;28;51239;-55
2022/01/29 03:33:35;;;;;;;;;128.25;120.00;;;;;;;;5014294;28;51063;-53
2022/01/29 03:36:20;;;;;;;;;133.75;114.00;;;;;;;;5021306;28;51212;-54
2022/01/29 03:39:04;;;;;;;;;138.25;120.25;;;;;;;;5017088;28;51086;-52
2022/01/29 03:41:48;;;;;;;;;148.50;129.25;;;;;;;;5019549;28;51587;-53
2022/01/29 03:44:33;;;;;;;;;135.50;121.00;;;;;;;;5017089;28;51186;-54
2022/01/29 03:47:17;;;;;;;;;150.25;127.00;;;;;;;;5019907;28;51530;-57
2022/01/29 03:50:02;;;;;;;;;144.25;125.00;;;;;;;;5019927;28;51168;-57
2022/01/29 03:52:46;;;;;;;;;145.50;115.25;;;;;;;;5021568;28;51184;-56
2022/01/29 03:55:30;;;;;;;;;145.75;125.50;;;;;;;;5005481;28;51176;-56
2022/01/29 03:58:14;;;;;;;;;140.75;121.50;;;;;;;;5020105;28;51126;-54
2022/01/29 04:00:59;;;;;;;;;141.50;123.00;;;;;;;;5016445;28;51134;-55
2022/01/29 04:03:43;;;;;;;;;135.25;120.25;;;;;;;;5019728;28;51142;-54
2022/01/29 04:06:28;;;;;;;;;136.50;116.75;;;;;;;;5018194;28;51127;-55
2022/01/29 04:09:12;;;;;;;;;124.75;115.25;;;;;;;;5018675;28;51186;-57
2022/01/29 04:11:56;;;;;;;;;127.25;113.25;;;;;;;;5017118;28;51437;-50
2022/01/29 04:14:41;;;;;;;;;124.50;111.00;;;;;;;;5017725;28;51037;-53
2022/01/29 04:17:25;;;;;;;;;119.75;111.50;;;;;;;;5016770;28;51408;-51
2022/01/29 04:20:10;;;;;;;;;117.00;97.00;;;;;;;;5017765;28;51046;-52
2022/01/29 04:22:54;;;;;;;;;115.50;102.75;;;;;;;;5020329;28;51042;-52
2022/01/29 04:25:39;;;;;;;;;115.00;103.75;;;;;;;;5017683;28;51103;-52
2022/01/29 04:28:28;;;;;;;;;125.00;108.50;;;;;;;;5020723;28;51205;-54
2022/01/29 04:31:18;;;;;;;;;123.25;103.50;;;;;;;;5016693;28;51422;-56
2022/01/29 04:34:03;;;;;;;;;104.50;93.50;;;;;;;;5014394;28;51008;-55
2022/01/29 04:36:47;;;;;;;;;115.50;100.00;;;;;;;;5018841;28;51091;-57
2022/01/29 04:39:31;;;;;;;;;106.75;95.25;;;;;;;;5014123;28;51285;-52
2022/01/29 04:42:15;;;;;;;;;113.25;94.75;;;;;;;;5014151;28;51458;-57
2022/01/29 04:45:00;;;;;;;;;108.00;95.25;;;;;;;;5020166;28;51023;-55
2022/01/29 04:47:44;;;;;;;;;114.00;98.25;;;;;;;;5018867;28;51519;-56
2022/01/29 04:50:29;;;;;;;;;133.75;112.25;;;;;;;;5019955;28;51540;-54
2022/01/29 04:53:13;;;;;;;;;134.75;115.50;;;;;;;;5011933;28;51072;-57
2022/01/29 04:55:58;;;;;;;;;152.25;131.25;;;;;;;;5010332;28;51452;-52
2022/01/29 04:58:42;;;;;;;;;152.50;136.00;;;;;;;;5011626;28;51114;-53
2022/01/29 05:01:26;;;;;;;;;154.25;125.50;;;;;;;;5012796;28;51397;-56
2022/01/29 05:04:11;;;;;;;;;143.50;121.50;;;;;;;;5019620;28;51169;-54
2022/01/29 05:06:55;;;;;;;;;145.25;124.00;;;;;;;;5016760;28;51453;-54
2022/01/29 05:09:40;;;;;;;;;146.50;128.50;;;;;;;;5015713;28;51159;-55
2022/01/29 05:12:34;;;;;;;;;145.75;127.25;;;;;;;;5015460;28;51075;-58
2022/01/29 05:27:12;;;;;;;;;117.50;102.75;;;;;;;;5019389;28;53241;-53
2022/01/29 05:29:56;;;;;;;;;118.25;106.00;;;;;;;;5009129;28;51221;-53
2022/01/29 05:32:41;;;;;;;;;120.50;105.75;;;;;;;;5017424;28;51703;-50
2022/01/29 05:35:25;;;;;;;;;122.25;108.00;;;;;;;;5011339;28;51143;-49
2022/01/29 05:38:10;;;;;;;;;106.25;95.50;;;;;;;;5018263;28;51190;-50
2022/01/29 05:40:55;;;;;;;;;107.75;98.75;;;;;;;;5016908;28;51202;-52
2022/01/29 05:43:39;;;;;;;;;111.75;101.50;;;;;;;;5010375;28;51074;-51
2022/01/29 05:46:24;;;;;;;;;119.25;101.00;;;;;;;;5018394;28;51590;-49
2022/01/29 05:49:08;;;;;;;;;112.50;95.25;;;;;;;;5017850;28;51165;-55
2022/01/29 05:51:52;;;;;;;;;122.00;107.00;;;;;;;;5017414;28;51453;-53
2022/01/29 05:54:37;;;;;;;;;113.25;96.50;;;;;;;;5010561;28;51180;-49
2022/01/29 05:57:21;;;;;;;;;118.00;104.50;;;;;;;;5017608;28;51099;-51
2022/01/29 06:00:06;;;;;;;;;115.00;102.25;;;;;;;;5009957;28;51129;-51
2022/01/29 06:02:59;;;;;;;;;110.50;99.25;;;;;;;;5016699;28;51313;-52
2022/01/29 06:05:44;;;;;;;;;117.50;102.25;;;;;;;;5011149;28;51414;-47
2022/01/29 06:08:28;;;;;;;;;112.50;99.00;;;;;;;;5017184;28;51119;-57
2022/01/29 06:11:13;;;;;;;;;109.50;94.50;;;;;;;;5018473;28;51097;-54
2022/01/29 06:13:57;;;;;;;;;104.50;93.25;;;;;;;;5017860;28;51054;-57
2022/01/29 06:16:41;;;;;;;;;112.00;95.75;;;;;;;;5016682;28;51534;-56
2022/01/29 06:19:26;;;;;;;;;101.00;90.25;;;;;;;;5017080;28;51172;-52
2022/01/29 06:22:13;;;;;;;;;107.50;94.25;;;;;;;;5018786;28;51825;-48
2022/01/29 06:24:57;;;;;;;;;122.75;113.25;;;;;;;;5014316;28;51197;-50
2022/01/29 06:27:42;;;;;;;;;113.25;99.25;;;;;;;;5017730;28;51174;-51
2022/01/29 06:30:26;;;;;;;;;118.50;103.50;;;;;;;;5008953;28;51176;-52
2022/01/29 06:33:11;;;;;;;;;121.75;104.50;;;;;;;;5016715;28;51180;-49
2022/01/29 06:35:56;;;;;;;;;137.50;116.25;;;;;;;;5011252;28;51268;-50
2022/01/29 06:38:40;;;;;;;;;119.75;101.00;;;;;;;;5001806;28;51111;-46
2022/01/29 06:41:25;;;;;;;;;116.25;108.50;;;;;;;;5017268;28;51181;-51
2022/01/29 06:44:09;;;;;;;;;123.75;108.50;;;;;;;;5005272;28;51039;-53
2022/01/29 06:46:53;;;;;;;;;128.50;117.75;;;;;;;;5016561;28;52657;-53
2022/01/29 06:49:38;;;;;;;;;127.50;112.00;;;;;;;;5014595;28;51106;-55
2022/01/29 06:52:23;;;;;;;;;124.25;108.75;;;;;;;;5017709;28;51070;-49
2022/01/29 06:55:07;;;;;;;;;123.50;105.75;;;;;;;;5016385;28;51451;-55
2022/01/29 06:57:51;;;;;;;;;120.75;104.00;;;;;;;;5019472;28;51234;-53
2022/01/29 07:00:36;;;;;;;;;124.75;109.00;;;;;;;;5017309;28;51739;-52
2022/01/29 07:03:20;;;;;;;;;113.25;105.75;;;;;;;;5023749;28;51363;-54
2022/01/29 07:06:05;;;;;;;;;128.75;108.00;;;;;;;;5018802;28;51323;-55
2022/01/29 07:08:49;;;;;;;;;131.75;110.75;;;;;;;;5021790;28;51061;-50
2022/01/29 07:11:33;;;;;;;;;124.75;113.00;;;;;;;;5016328;28;51114;-47
2022/01/29 07:14:18;;;;;;;;;141.00;115.50;;;;;;;;5020139;28;51202;-51
2022/01/29 07:17:03;;;;;;;;;130.25;108.25;;;;;;;;5021772;28;51463;-49
2022/01/29 07:19:47;;;;;;;;;137.75;117.50;;;;;;;;5018001;28;51182;-54
2022/01/29 07:22:31;;;;;;;;;131.25;112.50;;;;;;;;5021552;28;51300;-51
2022/01/29 07:25:15;;;;;;;;;135.25;109.75;;;;;;;;5017870;28;51084;-49
2022/01/29 07:28:00;;;;;;;;;122.75;106.25;;;;;;;;5020296;28;51151;-58
2022/01/29 07:30:45;;;;;;;;;131.75;109.50;;;;;;;;5020234;28;51018;-56
2022/01/29 07:33:30;;;;;;;;;132.50;109.50;;;;;;;;5020268;28;51178;-54
2022/01/29 07:36:14;;;;;;;;;138.25;120.50;;;;;;;;5016264;28;51118;-52
2022/01/29 07:38:58;;;;;;;;;132.00;114.00;;;;;;;;5011281;28;51126;-51
2022/01/29 07:41:43;;;;;;;;;129.50;112.50;;;;;;;;5018125;28;51454;-54
2022/01/29 07:44:27;;;;;;;;;120.50;104.00;;;;;;;;5019525;28;51118;-52
2022/01/29 07:47:11;;;;;;;;;120.75;107.25;;;;;;;;5018066;28;51551;-49
2022/01/29 07:49:56;;;;;;;;;113.75;97.50;;;;;;;;5020255;28;51140;-51
2022/01/29 07:52:40;;;;;;;;;112.00;101.50;;;;;;;;5017336;28;51083;-51
2022/01/29 07:55:30;;;;;;;;;113.00;96.25;;;;;;;;5011423;28;51113;-55
2022/01/29 07:58:13;;;;;;;;;128.25;100.50;;;;;;;;5010561;28;51205;-52
2022/01/29 08:00:58;;;;;;;;;122.00;114.25;;;;;;;;5015588;28;51494;-52
2022/01/29 08:03:46;;;;;;;;;126.50;111.75;;;;;;;;5018058;28;51077;-55
2022/01/29 08:06:31;;;;;;;;;126.75;109.25;;;;;;;;5015785;28;51426;-52
2022/01/29 08:09:15;;;;;;;;;119.25;98.25;;;;;;;;5015279;28;51180;-52
2022/01/29 08:11:59;;;;;;;;;129.00;108.75;;;;;;;;5021125;28;51781;-55
2022/01/29 08:14:44;;;;;;;;;125.25;111.00;;;;;;;;5013508;28;51946;-50
2022/01/29 08:17:28;;;;;;;;;136.25;115.75;;;;;;;;5017101;28;51519;-51
2022/01/29 08:20:12;;;;;;;;;130.50;119.00;;;;;;;;5019091;28;51517;-51
2022/01/29 08:22:57;;;;;;;;;114.75;101.50;;;;;;;;5019776;28;51511;-50
2022/01/29 08:25:41;;;;;;;;;108.25;98.50;;;;;;;;5015297;28;51347;-51
2022/01/29 08:28:25;;;;;;;;;120.00;103.75;;;;;;;;5020247;28;51204;-51
2022/01/29 08:31:10;;;;;;;;;112.25;95.75;;;;;;;;5017846;28;51174;-46
2022/01/29 08:33:54;;;;;;;;;114.25;99.25;;;;;;;;5016302;28;51185;-51
2022/01/29 08:36:39;;;;;;;;;116.50;101.00;;;;;;;;5013810;28;51409;-50
2022/01/29 08:39:24;;;;;;;;;115.00;106.50;;;;;;;;5013515;28;51502;-51
2022/01/29 08:42:09;;;;;;;;;121.50;106.50;;;;;;;;5015460;28;51121;-53
2022/01/29 08:44:53;;;;;;;;;115.75;100.50;;;;;;;;5012459;28;51387;-48
2022/01/29 08:47:38;;;;;;;;;64.00;45.25;;;;;;;;5017077;28;51139;-52
2022/01/29 08:50:22;;;;;;;;;115.75;101.25;;;;;;;;5016271;28;51252;-50
2022/01/29 08:53:07;;;;;;;;;120.75;104.75;;;;;;;;5017032;28;51219;-51
2022/01/29 08:55:51;;;;;;;;;103.00;92.75;;;;;;;;5012909;28;51128;-50
2022/01/29 08:58:35;;;;;;;;;118.00;103.25;;;;;;;;5015714;28;51538;-49
2022/01/29 09:01:20;;;;;;;;;101.50;88.50;;;;;;;;5016600;28;51415;-50
2022/01/29 09:04:04;;;;;;;;;103.25;93.50;;;;;;;;5015784;28;51144;-48
2022/01/29 09:06:49;;;;;;;;;130.00;121.75;;;;;;;;5015862;28;51084;-51
2022/01/29 09:09:33;;;;;;;;;124.75;102.50;;;;;;;;5016930;28;51402;-54
2022/01/29 09:12:17;;;;;;;;;108.25;96.50;;;;;;;;5014208;28;51053;-51
2022/01/29 09:15:02;;;;;;;;;120.00;101.50;;;;;;;;5014730;28;51214;-46
2022/01/29 09:17:46;;;;;;;;;105.50;90.25;;;;;;;;5015447;28;51194;-51
2022/01/29 09:20:31;;;;;;;;;105.50;92.50;;;;;;;;5015271;28;51155;-51
2022/01/29 09:23:15;;;;;;;;;96.50;78.25;;;;;;;;5016824;28;51510;-53
2022/01/29 09:26:01;;;;;;;;;84.25;73.50;;;;;;;;5013196;28;51832;-49
2022/01/29 09:28:45;;;;;;;;;79.00;68.25;;;;;;;;5015685;28;51225;-53
2022/01/29 09:31:30;;;;;;;;;94.50;77.00;;;;;;;;5010294;28;51117;-53
2022/01/29 09:34:14;;;;;;;;;97.50;80.75;;;;;;;;5014440;28;51205;-50
2022/01/29 09:36:59;;;;;;;;;96.50;79.75;;;;;;;;5017709;28;51182;-49
2022/01/29 09:39:43;;;;;;;;;92.00;75.75;;;;;;;;5017269;28;51499;-49
2022/01/29 09:42:28;;;;;;;;;96.75;82.25;;;;;;;;5012496;28;51182;-49
2022/01/29 09:45:14;;;;;;;;;103.25;85.25;;;;;;;;5014001;28;51151;-50
2022/01/29 09:48:04;;;;;;;;;98.25;83.75;;;;;;;;5015846;28;51128;-54
2022/01/29 09:50:50;;;;;;;;;103.50;87.25;;;;;;;;5017503;28;51493;-55
2022/01/29 09:53:34;;;;;;;;;110.00;88.75;;;;;;;;5015246;28;51089;-49
2022/01/29 09:56:19;;;;;;;;;106.00;88.50;;;;;;;;5016656;28;51156;-53
2022/01/29 09:59:03;;;;;;;;;100.50;82.50;;;;;;;;5015106;28;51008;-46
2022/01/29 10:01:47;;;;;;;;;91.50;78.50;;;;;;;;5014007;28;51051;-52
2022/01/29 10:04:44;;;;;;;;;99.50;81.50;;;;;;;;5016304;28;51083;-51
2022/01/29 10:07:29;;;;;;;;;107.50;76.75;;;;;;;;5016699;28;51128;-52
2022/01/29 10:10:18;;;;;;;;;100.00;73.75;;;;;;;;5018262;28;51066;-51
2022/01/29 10:13:20;;;;;;;;;102.50;81.75;;;;;;;;5016239;28;51486;-50
2022/01/29 10:16:05;;;;;;;;;99.75;74.25;;;;;;;;5014744;28;52234;-52
2022/01/29 10:18:58;;;;;;;;;103.75;82.50;;;;;;;;5018228;28;51182;-51
2022/01/29 10:21:45;;;;;;;;;101.00;80.00;;;;;;;;5015503;28;51134;-53
2022/01/29 10:24:30;;;;;;;;;103.50;84.75;;;;;;;;5017696;28;51134;-53
2022/01/29 10:27:14;;;;;;;;;91.25;75.50;;;;;;;;5019139;28;51049;-52
2022/01/29 10:29:59;;;;;;;;;110.50;82.00;;;;;;;;5014529;28;51515;-55
2022/01/29 10:32:44;;;;;;;;;103.75;76.25;;;;;;;;5007169;28;51147;-52
2022/01/29 10:35:48;;;;;;;;;111.25;80.00;;;;;;;;5009085;28;51032;-51
2022/01/29 10:38:45;;;;;;;;;99.50;77.75;;;;;;;;5012203;28;51574;-54
2022/01/29 10:41:31;;;;;;;;;104.00;81.75;;;;;;;;5010491;28;51526;-55
2022/01/29 10:44:18;;;;;;;;;104.50;85.00;;;;;;;;5017639;28;51477;-50
2022/01/29 10:47:02;;;;;;;;;96.00;77.25;;;;;;;;5017126;28;51201;-54
2022/01/29 10:49:54;;;;;;;;;94.50;71.25;;;;;;;;5014593;28;51234;-55
2022/01/29 10:52:39;;;;;;;;;100.25;65.50;;;;;;;;5016902;28;51125;-51
2022/01/29 10:55:24;;;;;;;;;121.25;77.25;;;;;;;;5016611;28;51228;-51
2022/01/29 10:58:19;;;;;;;;;92.25;71.25;;;;;;;;4998376;28;51149;-52
2022/01/29 11:01:32;;;;;;;;;96.75;67.75;;;;;;;;5012044;28;51004;-51
2022/01/29 11:04:16;;;;;;;;;98.75;72.75;;;;;;;;5003963;28;51295;-53
2022/01/29 11:07:05;;;;;;;;;106.25;74.25;;;;;;;;5014847;28;51522;-51
2022/01/29 11:09:52;;;;;;;;;113.00;77.50;;;;;;;;5016230;28;51108;-51
2022/01/29 11:12:41;;;;;;;;;94.50;71.25;;;;;;;;5016701;28;51088;-50
2022/01/29 11:15:26;;;;;;;;;103.00;74.25;;;;;;;;5017132;28;51540;-54
2022/01/29 11:18:10;;;;;;;;;100.50;78.75;;;;;;;;5017031;28;51215;-53
2022/01/29 11:20:55;;;;;;;;;104.00;75.00;;;;;;;;5012614;28;51556;-51
2022/01/29 11:23:40;;;;;;;;;86.50;56.50;;;;;;;;5017876;28;51185;-52
2022/01/29 11:26:24;;;;;;;;;103.75;65.25;;;;;;;;5009119;28;51139;-52
2022/01/29 11:29:22;;;;;;;;;101.25;72.50;;;;;;;;5013943;28;51015;-50
2022/01/29 11:32:22;;;;;;;;;96.00;71.25;;;;;;;;5015788;28;51569;-52
2022/01/29 11:35:09;;;;;;;;;100.25;74.00;;;;;;;;5012382;28;51404;-51
2022/01/29 11:38:06;;;;;;;;;98.25;70.25;;;;;;;;5017285;28;51072;-53
2022/01/29 11:40:59;;;;;;;;;102.75;58.50;;;;;;;;5011481;28;51449;-51
2022/01/29 11:43:43;;;;;;;;;88.75;63.25;;;;;;;;5013175;28;51132;-47
2022/01/29 11:46:31;;;;;;;;;97.50;74.00;;;;;;;;5018546;28;51381;-52
2022/01/29 11:49:17;;;;;;;;;109.00;74.50;;;;;;;;5013426;28;51196;-53
2022/01/29 11:52:19;;;;;;;;;100.50;76.00;;;;;;;;5016667;28;51050;-53
2022/01/29 11:55:05;;;;;;;;;100.25;68.75;;;;;;;;5014190;28;51064;-54
2022/01/29 11:58:08;;;;;;;;;91.50;68.25;;;;;;;;5020242;28;51708;-54
2022/01/29 12:00:56;;;;;;;;;110.25;72.00;;;;;;;;5016186;28;51169;-50
2022/01/29 12:03:44;;;;;;;;;111.25;72.25;;;;;;;;5015649;28;51067;-53
2022/01/29 12:06:32;;;;;;;;;95.25;68.25;;;;;;;;5017959;28;51459;-55
2022/01/29 12:09:19;;;;;;;;;98.00;67.25;;;;;;;;5011934;28;51172;-52
2022/01/29 12:12:15;;;;;;;;;88.50;65.50;;;;;;;;5017296;28;51098;-52
2022/01/29 12:15:09;;;;;;;;;77.00;61.50;;;;;;;;5011835;28;51176;-52
2022/01/29 12:18:01;;;;;;;;;94.50;69.75;;;;;;;;5018895;28;51139;-52
2022/01/29 12:20:45;;;;;;;;;104.00;73.50;;;;;;;;5018864;28;51145;-52
2022/01/29 12:23:30;;;;;;;;;102.25;69.25;;;;;;;;5020645;28;51090;-54
2022/01/29 12:26:18;;;;;;;;;98.00;63.00;;;;;;;;5018635;28;51111;-54
2022/01/29 12:29:03;;;;;;;;;103.75;70.00;;;;;;;;5019822;28;51201;-49
2022/01/29 12:31:48;;;;;;;;;92.50;71.00;;;;;;;;5013785;28;51129;-50
2022/01/29 12:34:33;;;;;;;;;104.25;71.00;;;;;;;;5017148;28;51330;-51
2022/01/29 12:37:19;;;;;;;;;107.00;70.50;;;;;;;;5019850;28;51280;-53
2022/01/29 12:40:07;;;;;;;;;99.25;73.50;;;;;;;;5016482;28;51250;-48
2022/01/29 12:42:59;;;;;;;;;98.25;75.00;;;;;;;;5012039;28;51352;-49
2022/01/29 12:45:43;;;;;;;;;100.75;70.25;;;;;;;;5019683;28;51218;-54
2022/01/29 12:48:27;;;;;;;;;112.75;72.00;;;;;;;;5020171;28;51396;-51
2022/01/29 12:51:12;;;;;;;;;111.75;80.75;;;;;;;;5017512;28;51153;-51
2022/01/29 12:53:57;;;;;;;;;97.25;69.75;;;;;;;;5020390;28;51309;-54
2022/01/29 12:56:41;;;;;;;;;117.25;69.75;;;;;;;;5017127;28;51129;-52
2022/01/29 12:59:25;;;;;;;;;95.25;67.75;;;;;;;;5019829;28;51015;-53
2022/01/29 13:02:09;;;;;;;;;99.00;72.75;;;;;;;;5018011;28;51514;-53
2022/01/29 13:04:59;;;;;;;;;99.25;65.25;;;;;;;;5018268;28;51123;-54
2022/01/29 13:07:46;;;;;;;;;105.25;67.50;;;;;;;;5012962;28;51165;-50
2022/01/29 13:10:32;;;;;;;;;98.00;62.75;;;;;;;;5018931;28;51122;-53
2022/01/29 13:13:46;;;;;;;;;96.25;67.75;;;;;;;;5019111;28;50987;-51
2022/01/29 13:16:31;;;;;;;;;96.00;67.25;;;;;;;;5013998;28;51232;-53
2022/01/29 13:19:15;;;;;;;;;99.50;62.75;;;;;;;;5020315;28;51150;-50
2022/01/29 13:22:01;;;;;;;;;92.75;62.75;;;;;;;;5019353;28;51492;-52
2022/01/29 13:24:48;;;;;;;;;90.75;52.75;;;;;;;;5014244;28;51090;-53
2022/01/29 13:27:35;;;;;;;;;85.75;62.25;;;;;;;;5017078;28;52597;-52
2022/01/29 13:30:23;;;;;;;;;96.50;64.25;;;;;;;;5018269;28;51181;-55
2022/01/29 13:33:10;;;;;;;;;105.25;62.75;;;;;;;;5018550;28;51053;-55
2022/01/29 13:35:54;;;;;;;;;103.50;66.25;;;;;;;;5001760;28;51087;-54
2022/01/29 13:38:40;;;;;;;;;105.50;68.00;;;;;;;;5016901;28;51590;-55
2022/01/29 13:41:24;;;;;;;;;103.25;64.50;;;;;;;;5002216;28;51143;-54
2022/01/29 13:44:09;;;;;;;;;93.00;62.50;;;;;;;;5002531;28;51234;-52
2022/01/29 13:47:07;;;;;;;;;112.00;67.00;;;;;;;;5017384;28;51177;-51
2022/01/29 13:49:53;;;;;;;;;95.75;67.50;;;;;;;;5019322;28;51131;-50
2022/01/29 13:52:37;;;;;;;;;100.75;69.50;;;;;;;;5019420;28;51486;-53
2022/01/29 13:55:21;;;;;;;;;90.75;64.00;;;;;;;;5018170;28;51435;-50
2022/01/29 13:58:10;;;;;;;;;95.50;76.50;;;;;;;;5018406;28;51159;-52
2022/01/29 14:01:00;;;;;;;;;99.25;65.25;;;;;;;;5018505;28;51068;-50
2022/01/29 14:03:51;;;;;;;;;99.00;70.00;;;;;;;;5014977;28;51221;-46
2022/01/29 14:06:40;;;;;;;;;104.75;71.50;;;;;;;;5012771;28;51196;-48
2022/01/29 14:09:34;;;;;;;;;111.00;76.75;;;;;;;;5015865;28;51066;-51
2022/01/29 14:12:19;;;;;;;;;96.00;67.50;;;;;;;;5017137;28;51123;-51
2022/01/29 14:15:09;;;;;;;;;111.25;75.50;;;;;;;;5018852;28;51186;-49
2022/01/29 14:17:53;;;;;;;;;120.25;80.75;;;;;;;;5018486;28;51051;-49
2022/01/29 14:20:38;;;;;;;;;112.50;69.75;;;;;;;;5017588;28;51137;-53
2022/01/29 14:23:22;;;;;;;;;103.75;73.25;;;;;;;;5018955;28;51100;-50
2022/01/29 14:26:06;;;;;;;;;92.00;65.25;;;;;;;;5016123;28;51216;-48
2022/01/29 14:28:54;;;;;;;;;125.75;92.25;;;;;;;;5014980;28;51377;-48
2022/01/29 14:31:38;;;;;;;;;101.50;75.50;;;;;;;;5017964;28;51084;-48
2022/01/29 14:34:23;;;;;;;;;73.50;50.00;;;;;;;;5017296;28;51189;-49
2022/01/29 14:37:07;;;;;;;;;102.75;73.75;;;;;;;;5015071;28;51145;-48
2022/01/29 14:39:51;;;;;;;;;105.00;74.25;;;;;;;;5017740;28;51191;-52
2022/01/29 14:42:43;;;;;;;;;101.25;66.00;;;;;;;;5017234;28;51159;-46
2022/01/29 14:45:28;;;;;;;;;101.25;72.00;;;;;;;;5017695;28;51078;-46
2022/01/29 14:48:13;;;;;;;;;95.50;63.50;;;;;;;;5018396;28;51483;-48
2022/01/29 14:50:57;;;;;;;;;104.00;66.75;;;;;;;;5016788;28;51189;-48
2022/01/29 14:53:43;;;;;;;;;90.00;61.25;;;;;;;;5017070;28;51134;-49
2022/01/29 14:56:28;;;;;;;;;94.75;61.75;;;;;;;;5016063;28;51085;-47
2022/01/29 14:59:13;;;;;;;;;98.50;60.75;;;;;;;;5016796;28;51173;-47
2022/01/29 15:01:58;;;;;;;;;96.00;58.25;;;;;;;;5017586;28;51437;-51
2022/01/29 15:04:56;;;;;;;;;78.25;45.50;;;;;;;;5015211;28;51190;-49
2022/01/29 15:07:41;;;;;;;;;86.00;55.25;;;;;;;;5016755;28;51144;-50
2022/01/29 15:10:26;;;;;;;;;87.25;58.75;;;;;;;;5018182;28;51092;-51
2022/01/29 15:13:10;;;;;;;;;99.25;60.75;;;;;;;;5017614;28;51363;-46
2022/01/29 15:15:54;;;;;;;;;82.25;62.25;;;;;;;;5018177;28;51687;-48
2022/01/29 15:18:39;;;;;;;;;90.25;54.50;;;;;;;;5019924;28;51043;-47
2022/01/29 15:21:23;;;;;;;;;84.25;58.00;;;;;;;;5021046;28;51173;-47
2022/01/29 15:24:08;;;;;;;;;91.00;60.75;;;;;;;;5022481;28;51027;-48
2022/01/29 15:26:52;;;;;;;;;94.50;62.50;;;;;;;;5021755;28;51122;-49
2022/01/29 15:29:36;;;;;;;;;88.75;59.00;;;;;;;;5020238;28;51138;-49
2022/01/29 15:32:21;;;;;;;;;98.50;57.50;;;;;;;;5021045;28;51622;-47
2022/01/29 15:35:05;;;;;;;;;98.25;69.25;;;;;;;;5021619;28;51056;-48
2022/01/29 15:37:50;;;;;;;;;97.50;67.00;;;;;;;;5021375;28;51573;-47
2022/01/29 15:40:34;;;;;;;;;103.50;68.25;;;;;;;;5020437;28;51046;-49
2022/01/29 15:43:19;;;;;;;;;86.25;63.25;;;;;;;;5018752;28;52821;-47
2022/01/29 15:46:03;;;;;;;;;103.50;66.75;;;;;;;;5021193;28;51137;-46
2022/01/29 15:48:47;;;;;;;;;97.25;66.25;;;;;;;;5019989;28;51030;-47
2022/01/29 15:51:32;;;;;;;;;101.25;64.75;;;;;;;;5019872;28;51273;-48
2022/01/29 15:54:18;;;;;;;;;91.75;66.50;;;;;;;;5021175;28;52011;-48
2022/01/29 15:57:04;;;;;;;;;105.50;62.75;;;;;;;;5020477;28;51164;-46
2022/01/29 15:59:48;;;;;;;;;76.25;49.75;;;;;;;;5016457;28;51062;-47
2022/01/29 16:02:32;;;;;;;;;93.25;61.75;;;;;;;;5020478;28;51616;-49